createdAt,value
2022-12-20T00:02:37.933Z,12.18
2022-12-20T00:05:23.063Z,12.38
2022-12-20T00:08:09.613Z,13.63
2022-12-20T00:10:54.758Z,14.60
2022-12-20T00:13:39.996Z,13.27
2022-12-20T00:16:27.991Z,12.80
2022-12-20T00:19:13.367Z,12.70
2022-12-20T00:21:58.697Z,12.25
2022-12-20T00:24:44.521Z,14.00
2022-12-20T00:27:29.851Z,14.35
2022-12-20T00:30:16.601Z,11.30
2022-12-20T00:33:02.083Z,12.07
2022-12-20T00:35:47.344Z,13.48
2022-12-20T00:38:33.914Z,11.38
2022-12-20T00:41:22.162Z,12.18
2022-12-20T00:44:07.368Z,12.00
2022-12-20T00:46:52.827Z,13.55
2022-12-20T00:49:38.168Z,12.73
2022-12-20T00:52:23.637Z,13.10
2022-12-20T00:55:09.254Z,12.13
2022-12-20T00:57:54.540Z,14.40
2022-12-20T01:00:40.323Z,14.07
2022-12-20T01:03:26.714Z,12.23
2022-12-20T01:06:12.253Z,12.75
2022-12-20T01:08:57.976Z,14.40
2022-12-20T01:11:43.028Z,13.00
2022-12-20T01:14:28.456Z,12.02
2022-12-20T01:17:13.824Z,12.98
2022-12-20T01:19:59.329Z,12.50
2022-12-20T01:22:47.642Z,13.77
2022-12-20T01:25:33.250Z,13.07
2022-12-20T01:28:18.665Z,13.10
2022-12-20T01:31:10.862Z,13.45
2022-12-20T01:33:56.430Z,11.88
2022-12-20T01:36:42.206Z,13.02
2022-12-20T01:39:27.568Z,12.23
2022-12-20T01:42:16.232Z,12.68
2022-12-20T01:45:01.948Z,12.73
2022-12-20T01:47:47.707Z,13.75
2022-12-20T01:50:34.366Z,13.23
2022-12-20T01:53:23.024Z,13.50
2022-12-20T01:56:09.249Z,13.75
2022-12-20T01:58:55.998Z,12.38
2022-12-20T02:01:43.007Z,13.65
2022-12-20T02:04:28.790Z,13.20
2022-12-20T02:07:20.213Z,12.07
2022-12-20T02:10:07.233Z,13.35
2022-12-20T02:13:03.052Z,12.13
2022-12-20T02:15:56.366Z,12.60
2022-12-20T02:19:09.890Z,11.20
2022-12-20T02:28:09.820Z,11.98
2022-12-20T02:30:57.301Z,12.05
2022-12-20T02:33:45.323Z,13.57
2022-12-20T02:36:30.844Z,13.05
2022-12-20T02:39:17.209Z,12.82
2022-12-20T02:42:07.006Z,13.85
2022-12-20T02:45:16.784Z,12.18
2022-12-20T02:48:11.259Z,12.43
2022-12-20T02:50:59.345Z,13.60
2022-12-20T02:53:45.064Z,13.18
2022-12-20T02:56:36.056Z,13.90
2022-12-20T02:59:25.905Z,13.63
2022-12-20T03:02:11.464Z,13.80
2022-12-20T03:04:58.317Z,11.95
2022-12-20T03:07:43.809Z,13.48
2022-12-20T03:10:29.279Z,14.63
2022-12-20T03:13:14.837Z,14.50
2022-12-20T03:16:00.595Z,13.52
2022-12-20T03:18:46.250Z,13.30
2022-12-20T03:21:31.440Z,14.70
2022-12-20T03:24:17.667Z,13.95
2022-12-20T03:27:02.830Z,13.88
2022-12-20T03:29:48.171Z,15.40
2022-12-20T03:32:33.693Z,13.80
2022-12-20T03:35:19.135Z,16.23
2022-12-20T03:38:04.476Z,14.75
2022-12-20T03:40:49.959Z,14.88
2022-12-20T03:43:35.396Z,12.45
2022-12-20T03:46:20.844Z,11.75
2022-12-20T03:49:06.278Z,13.77
2022-12-20T03:51:51.831Z,13.45
2022-12-20T03:54:36.905Z,13.55
2022-12-20T03:57:22.639Z,13.00
2022-12-20T04:00:08.290Z,15.40
2022-12-20T04:02:53.857Z,13.88
2022-12-20T04:05:39.400Z,15.05
2022-12-20T04:08:24.844Z,14.10
2022-12-20T04:11:16.669Z,15.30
2022-12-20T04:14:01.848Z,14.98
2022-12-20T04:16:47.291Z,14.98
2022-12-20T04:19:32.681Z,15.65
2022-12-20T04:22:18.068Z,15.70
2022-12-20T04:25:03.855Z,14.40
2022-12-20T04:27:49.164Z,14.13
2022-12-20T04:30:34.639Z,14.82
2022-12-20T04:33:20.001Z,11.23
2022-12-20T04:36:05.646Z,14.10
2022-12-20T04:38:50.853Z,14.98
2022-12-20T04:41:36.197Z,15.05
2022-12-20T04:44:21.639Z,13.90
2022-12-20T04:47:07.045Z,13.57
2022-12-20T04:49:52.507Z,14.82
2022-12-20T04:52:56.336Z,16.15
2022-12-20T04:55:41.946Z,14.75
2022-12-20T04:58:27.167Z,16.65
2022-12-20T05:01:12.978Z,13.32
2022-12-20T05:03:58.200Z,16.10
2022-12-20T05:06:43.703Z,14.95
2022-12-20T05:09:29.522Z,15.50
2022-12-20T05:12:14.880Z,16.58
2022-12-20T05:15:00.138Z,16.20
2022-12-20T05:17:45.432Z,17.30
2022-12-20T05:20:31.377Z,14.45
2022-12-20T05:23:35.104Z,14.95
2022-12-20T05:26:21.029Z,15.32
2022-12-20T05:29:06.638Z,16.17
2022-12-20T05:31:52.538Z,15.13
2022-12-20T05:34:37.813Z,14.98
2022-12-20T05:37:23.135Z,15.80
2022-12-20T05:40:09.165Z,16.55
2022-12-20T05:42:55.074Z,15.60
2022-12-20T05:45:40.312Z,14.02
2022-12-20T05:48:25.849Z,16.73
2022-12-20T05:51:11.202Z,13.93
2022-12-20T05:53:56.549Z,14.68
2022-12-20T05:56:42.060Z,13.93
2022-12-20T05:59:27.337Z,14.82
2022-12-20T06:02:12.919Z,15.35
2022-12-20T06:04:59.070Z,14.40
2022-12-20T06:07:44.416Z,13.05
2022-12-20T06:10:29.845Z,14.05
2022-12-20T06:13:15.667Z,12.07
2022-12-20T06:16:00.983Z,14.02
2022-12-20T06:18:46.639Z,13.63
2022-12-20T06:21:32.162Z,14.82
2022-12-20T06:24:17.527Z,14.80
2022-12-20T06:27:03.554Z,12.15
2022-12-20T06:29:52.037Z,12.88
2022-12-20T06:32:38.863Z,12.00
2022-12-20T06:35:24.508Z,13.13
2022-12-20T06:38:09.724Z,13.85
2022-12-20T06:40:55.123Z,15.43
2022-12-20T06:43:40.656Z,14.50
2022-12-20T06:46:27.331Z,13.80
2022-12-20T06:49:13.728Z,15.25
2022-12-20T06:51:59.203Z,14.07
2022-12-20T06:54:44.659Z,14.45
2022-12-20T06:57:29.878Z,13.55
2022-12-20T07:00:16.542Z,13.27
2022-12-20T07:03:01.887Z,11.90
2022-12-20T07:05:56.222Z,12.30
2022-12-20T07:08:41.544Z,12.10
2022-12-20T07:11:26.900Z,12.82
2022-12-20T07:14:12.174Z,11.02
2022-12-20T07:16:57.607Z,12.95
2022-12-20T07:19:48.704Z,10.98
2022-12-20T07:22:35.676Z,13.43
2022-12-20T07:25:21.312Z,12.30
2022-12-20T07:28:06.879Z,13.30
2022-12-20T07:30:52.267Z,13.73
2022-12-20T07:33:38.774Z,13.90
2022-12-20T07:36:23.776Z,12.45
2022-12-20T07:39:09.201Z,11.57
2022-12-20T07:41:55.464Z,13.65
2022-12-20T07:44:40.708Z,13.25
2022-12-20T07:47:26.140Z,13.20
2022-12-20T07:50:11.970Z,12.27
2022-12-20T07:52:58.579Z,11.85
2022-12-20T07:55:44.385Z,12.93
2022-12-20T07:58:30.986Z,13.07
2022-12-20T08:01:16.044Z,13.32
2022-12-20T08:04:09.726Z,13.90
2022-12-20T08:06:58.717Z,12.93
2022-12-20T08:09:45.235Z,12.63
2022-12-20T08:12:30.871Z,13.07
2022-12-20T08:15:16.700Z,12.65
2022-12-20T08:18:02.901Z,12.80
2022-12-20T08:20:48.433Z,11.95
2022-12-20T08:23:34.013Z,12.50
2022-12-20T08:26:19.621Z,12.90
2022-12-20T08:29:05.158Z,13.13
2022-12-20T08:31:50.968Z,11.10
2022-12-20T08:34:36.632Z,11.02
2022-12-20T08:37:22.325Z,12.50
2022-12-20T08:40:09.026Z,12.55
2022-12-20T08:42:54.699Z,10.52
2022-12-20T08:45:40.377Z,12.27
2022-12-20T08:48:25.700Z,12.40
2022-12-20T08:51:11.949Z,12.70
2022-12-20T08:53:57.466Z,13.45
2022-12-20T08:57:06.604Z,12.30
2022-12-20T08:59:52.252Z,14.88
2022-12-20T09:02:38.537Z,11.60
2022-12-20T09:05:24.143Z,10.75
2022-12-20T09:08:09.607Z,11.13
2022-12-20T09:11:02.954Z,9.40
2022-12-20T09:13:50.139Z,9.60
2022-12-20T09:16:35.283Z,11.95
2022-12-20T09:19:20.702Z,12.18
2022-12-20T09:22:06.036Z,13.13
2022-12-20T09:24:51.355Z,13.02
2022-12-20T09:27:36.631Z,11.45
2022-12-20T09:30:23.149Z,11.40
2022-12-20T09:33:10.537Z,11.13
2022-12-20T09:35:56.504Z,12.35
2022-12-20T09:38:41.796Z,12.90
2022-12-20T09:41:39.504Z,11.88
2022-12-20T09:44:30.512Z,12.18
2022-12-20T09:47:20.108Z,11.65
2022-12-20T09:50:08.182Z,11.43
2022-12-20T09:53:10.228Z,13.82
2022-12-20T09:56:26.536Z,12.07
2022-12-20T10:02:13.215Z,12.23
2022-12-20T10:05:04.380Z,11.77
2022-12-20T10:08:21.042Z,10.98
2022-12-20T10:11:49.858Z,11.20
2022-12-20T10:15:02.122Z,11.52
2022-12-20T10:18:19.527Z,9.73
2022-12-20T10:21:41.731Z,10.95
2022-12-20T10:24:32.672Z,11.27
2022-12-20T10:27:20.683Z,12.55
2022-12-20T10:30:18.721Z,11.38
2022-12-20T10:33:04.086Z,10.65
2022-12-20T10:35:50.721Z,11.20
2022-12-20T10:38:48.149Z,11.95
2022-12-20T10:41:45.447Z,10.38
2022-12-20T10:44:30.852Z,9.85
2022-12-20T10:47:44.609Z,10.50
2022-12-20T10:50:30.626Z,9.27
2022-12-20T10:53:25.461Z,8.70
2022-12-20T10:56:29.403Z,10.73
2022-12-20T10:59:21.225Z,9.98
2022-12-20T11:02:41.580Z,11.23
2022-12-20T11:05:27.775Z,11.65
2022-12-20T11:08:35.326Z,10.88
2022-12-20T11:11:24.753Z,11.65
2022-12-20T11:14:16.268Z,10.30
2022-12-20T11:17:07.850Z,11.18
2022-12-20T11:20:32.457Z,11.68
2022-12-20T11:23:44.621Z,11.85
2022-12-20T11:26:44.159Z,11.55
2022-12-20T11:30:04.213Z,11.00
2022-12-20T11:33:11.171Z,11.77
2022-12-20T11:36:14.334Z,10.90
2022-12-20T11:39:27.354Z,11.40
2022-12-20T11:42:36.990Z,11.48
2022-12-20T11:46:00.123Z,11.75
2022-12-20T11:49:11.014Z,11.07
2022-12-20T11:52:10.429Z,11.15
2022-12-20T11:55:25.088Z,10.98
2022-12-20T11:58:19.066Z,11.82
2022-12-20T12:01:13.636Z,10.82
2022-12-20T12:04:16.509Z,11.18
2022-12-20T12:07:23.807Z,11.40
2022-12-20T12:10:25.550Z,11.35
2022-12-20T12:13:33.428Z,12.73
2022-12-20T12:16:20.960Z,10.63
2022-12-20T12:19:11.230Z,11.27
2022-12-20T12:22:05.639Z,12.07
2022-12-20T12:24:57.656Z,11.57
2022-12-20T12:27:43.028Z,10.90
2022-12-20T12:30:40.436Z,11.00
2022-12-20T12:33:38.558Z,13.25
2022-12-20T12:36:46.807Z,11.20
2022-12-20T12:39:47.145Z,10.57
2022-12-20T12:43:09.020Z,10.75
2022-12-20T12:45:59.977Z,11.20
2022-12-20T12:48:52.467Z,10.55
2022-12-20T12:51:41.339Z,11.23
2022-12-20T12:54:37.376Z,10.70
2022-12-20T12:57:22.822Z,11.10
2022-12-20T13:00:46.789Z,9.60
2022-12-20T13:04:06.444Z,10.30
2022-12-20T13:07:22.475Z,10.30
2022-12-20T13:10:20.334Z,10.32
2022-12-20T13:13:23.266Z,10.52
2022-12-20T13:17:02.352Z,10.77
2022-12-20T13:19:44.649Z,10.70
2022-12-20T13:22:32.450Z,11.18
2022-12-20T13:25:35.288Z,11.05
2022-12-20T13:28:24.720Z,10.88
2022-12-20T13:31:16.735Z,11.77
2022-12-20T13:34:41.560Z,12.13
2022-12-20T13:37:54.762Z,11.57
2022-12-20T13:40:49.872Z,10.02
2022-12-20T13:43:47.438Z,12.85
2022-12-20T13:47:02.511Z,10.40
2022-12-20T13:49:51.369Z,11.77
2022-12-20T13:52:44.259Z,11.50
2022-12-20T13:55:40.211Z,11.40
2022-12-20T13:58:34.588Z,11.15
2022-12-20T14:01:25.271Z,12.07
2022-12-20T14:04:14.861Z,12.25
2022-12-20T14:07:02.860Z,11.68
2022-12-20T14:09:59.921Z,12.23
2022-12-20T14:12:46.716Z,13.20
2022-12-20T14:15:39.055Z,12.15
2022-12-20T14:18:26.821Z,10.45
2022-12-20T14:21:13.707Z,10.93
2022-12-20T14:24:06.255Z,12.23
2022-12-20T14:27:04.227Z,11.63
2022-12-20T14:29:53.497Z,11.00
2022-12-20T14:32:50.255Z,12.00
2022-12-20T14:35:36.640Z,12.48
2022-12-20T14:38:31.235Z,11.40
2022-12-20T14:41:38.840Z,11.45
2022-12-20T14:44:30.483Z,11.82
2022-12-20T14:47:27.712Z,11.93
2022-12-20T14:50:29.605Z,12.05
2022-12-20T14:53:25.501Z,11.25
2022-12-20T14:56:22.623Z,11.13
2022-12-20T14:59:18.383Z,12.38
2022-12-20T15:02:42.374Z,11.90
2022-12-20T15:05:38.731Z,10.70
2022-12-20T15:08:33.066Z,11.40
2022-12-20T15:11:34.827Z,13.07
2022-12-20T15:14:44.277Z,10.32
2022-12-20T15:17:30.321Z,11.07
2022-12-20T15:20:19.214Z,10.80
2022-12-20T15:23:06.972Z,10.43
2022-12-20T15:25:55.005Z,11.68
2022-12-20T15:28:46.655Z,11.40
2022-12-20T15:31:40.553Z,10.73
2022-12-20T15:34:33.464Z,10.57
2022-12-20T15:37:29.490Z,11.32
2022-12-20T15:40:17.734Z,12.10
2022-12-20T15:43:06.087Z,10.90
2022-12-20T15:45:54.570Z,10.73
2022-12-20T15:48:42.462Z,11.00
2022-12-20T15:51:34.720Z,10.60
2022-12-20T15:54:27.866Z,11.13
2022-12-20T15:57:21.005Z,10.07
2022-12-20T16:00:07.647Z,10.18
2022-12-20T16:02:55.655Z,11.10
2022-12-20T16:05:44.101Z,10.25
2022-12-20T16:08:32.702Z,11.82
2022-12-20T16:11:27.109Z,10.00
2022-12-20T16:14:19.300Z,10.38
2022-12-20T16:17:10.042Z,10.60
2022-12-20T16:19:55.722Z,9.90
2022-12-20T16:22:45.269Z,10.80
2022-12-20T16:25:43.953Z,12.52
2022-12-20T16:28:31.098Z,9.73
2022-12-20T16:31:38.771Z,9.60
2022-12-20T16:34:30.219Z,10.45
2022-12-20T16:37:19.036Z,10.32
2022-12-20T16:40:11.505Z,10.35
2022-12-20T16:43:02.297Z,11.90
2022-12-20T16:45:52.228Z,10.80
2022-12-20T16:48:38.068Z,13.32
2022-12-20T16:51:27.475Z,11.30
2022-12-20T16:54:23.205Z,11.25
2022-12-20T16:57:09.591Z,10.52
2022-12-20T16:59:54.784Z,12.00
2022-12-20T17:02:40.356Z,8.85
2022-12-20T17:05:29.517Z,8.90
2022-12-20T17:11:23.857Z,10.65
2022-12-20T17:14:13.339Z,9.82
2022-12-20T17:16:59.070Z,9.35
2022-12-20T17:19:44.931Z,9.25
2022-12-20T17:28:20.443Z,9.73
2022-12-20T17:31:24.583Z,9.70
2022-12-20T17:34:21.996Z,8.43
2022-12-20T17:37:08.184Z,10.50
2022-12-20T17:39:53.617Z,9.82
2022-12-20T17:42:38.971Z,9.63
2022-12-20T17:45:28.060Z,9.70
2022-12-20T17:48:13.367Z,8.75
2022-12-20T17:50:58.858Z,9.98
2022-12-20T17:53:46.864Z,10.75
2022-12-20T17:56:34.549Z,9.25
2022-12-20T17:59:20.353Z,9.90
2022-12-20T18:02:25.011Z,10.80
2022-12-20T18:05:13.617Z,10.95
2022-12-20T18:07:59.054Z,11.02
2022-12-20T18:10:45.683Z,9.30
2022-12-20T18:13:31.045Z,10.35
2022-12-20T18:16:19.818Z,10.70
2022-12-20T18:19:06.070Z,9.13
2022-12-20T18:21:51.218Z,10.05
2022-12-20T18:24:36.553Z,10.30
2022-12-20T18:27:27.035Z,9.90
2022-12-20T18:30:15.927Z,10.40
2022-12-20T18:33:01.256Z,11.60
2022-12-20T18:35:46.732Z,9.88
2022-12-20T18:38:33.049Z,9.48
2022-12-20T18:41:26.074Z,10.57
2022-12-20T18:44:11.936Z,10.38
2022-12-20T18:46:56.966Z,9.18
2022-12-20T18:49:42.421Z,9.70
2022-12-20T18:52:27.776Z,10.70
2022-12-20T18:55:12.980Z,10.23
2022-12-20T18:57:58.238Z,10.35
2022-12-20T19:00:43.644Z,10.52
2022-12-20T19:03:30.119Z,9.88
2022-12-20T19:06:15.362Z,10.43
2022-12-20T19:09:01.920Z,11.80
2022-12-20T19:11:51.602Z,10.98
2022-12-20T19:14:40.247Z,11.15
2022-12-20T19:17:25.626Z,11.48
2022-12-20T19:20:11.138Z,11.27
2022-12-20T19:22:56.659Z,11.25
2022-12-20T19:25:41.945Z,10.05
2022-12-20T19:28:27.421Z,10.55
2022-12-20T19:31:25.029Z,9.88
2022-12-20T19:34:12.521Z,10.48
2022-12-20T19:36:57.761Z,11.13
2022-12-20T19:39:43.273Z,9.90
2022-12-20T19:42:30.555Z,9.85
2022-12-20T19:45:15.709Z,11.35
2022-12-20T19:48:01.059Z,10.52
2022-12-20T19:50:46.420Z,9.25
2022-12-20T19:53:32.218Z,11.18
2022-12-20T19:56:19.880Z,10.32
2022-12-20T19:59:04.965Z,13.30
2022-12-20T20:01:50.667Z,13.48
2022-12-20T20:04:36.107Z,11.13
2022-12-20T20:07:21.410Z,11.88
2022-12-20T20:10:07.541Z,11.73
2022-12-20T20:12:52.508Z,12.02
2022-12-20T20:15:37.794Z,13.68
2022-12-20T20:18:23.704Z,12.60
2022-12-20T20:21:12.248Z,10.73
2022-12-20T20:23:57.451Z,13.57
2022-12-20T20:26:42.793Z,11.90
2022-12-20T20:29:28.141Z,11.07
2022-12-20T20:32:13.578Z,11.85
2022-12-20T20:34:58.711Z,11.13
2022-12-20T20:37:44.910Z,10.60
2022-12-20T20:40:30.213Z,11.90
2022-12-20T20:43:15.458Z,10.48
2022-12-20T20:46:00.917Z,10.93
2022-12-20T20:48:46.307Z,11.38
2022-12-20T20:51:31.666Z,10.93
2022-12-20T20:54:17.148Z,11.48
2022-12-20T20:57:02.553Z,10.02
2022-12-20T20:59:48.029Z,12.10
2022-12-20T21:02:33.383Z,11.07
2022-12-20T21:08:23.864Z,11.95
2022-12-20T21:11:09.969Z,11.38
2022-12-20T21:13:55.749Z,11.52
2022-12-20T21:16:41.255Z,9.93
2022-12-20T21:19:26.610Z,11.20
2022-12-20T21:22:12.108Z,10.75
2022-12-20T21:24:57.691Z,10.68
2022-12-20T21:27:43.011Z,10.85
2022-12-20T21:30:27.948Z,9.95
2022-12-20T21:33:13.351Z,11.35
2022-12-20T21:36:07.004Z,9.35
2022-12-20T21:38:55.011Z,10.18
2022-12-20T21:41:40.166Z,10.88
2022-12-20T21:44:25.565Z,9.43
2022-12-20T21:47:11.258Z,7.95
2022-12-20T21:49:57.363Z,11.10
2022-12-20T21:52:42.759Z,10.18
2022-12-20T21:55:28.052Z,9.65
2022-12-20T21:58:13.380Z,9.68
2022-12-20T22:00:59.403Z,10.77
2022-12-20T22:03:45.367Z,11.50
2022-12-20T22:06:31.441Z,10.10
2022-12-20T22:09:17.058Z,10.65
2022-12-20T22:12:02.308Z,10.52
2022-12-20T22:14:47.855Z,10.40
2022-12-20T22:17:33.446Z,11.32
2022-12-20T22:20:18.525Z,10.75
2022-12-20T22:23:04.690Z,11.57
2022-12-20T22:25:49.775Z,11.57
2022-12-20T22:28:35.741Z,10.18
2022-12-20T22:31:21.913Z,10.70
2022-12-20T22:34:07.389Z,10.75
2022-12-20T22:36:54.418Z,9.32
2022-12-20T22:39:39.758Z,10.68
2022-12-20T22:42:25.251Z,10.13
2022-12-20T22:45:11.022Z,10.57
2022-12-20T22:47:56.054Z,10.35
2022-12-20T22:50:41.868Z,10.18
2022-12-20T22:53:27.737Z,11.82
2022-12-20T22:56:13.972Z,10.75
2022-12-20T22:58:59.328Z,11.77
2022-12-20T23:01:44.888Z,11.60
2022-12-20T23:04:30.196Z,11.57
2022-12-20T23:07:15.751Z,10.98
2022-12-20T23:10:01.246Z,11.07
2022-12-20T23:13:05.129Z,10.85
2022-12-20T23:15:50.638Z,11.52
2022-12-20T23:18:35.987Z,11.75
2022-12-20T23:21:39.936Z,11.63
2022-12-20T23:24:25.616Z,11.25
2022-12-20T23:27:10.845Z,12.25
2022-12-20T23:29:56.140Z,11.73
2022-12-20T23:32:45.329Z,12.05
2022-12-20T23:35:30.501Z,10.75
2022-12-20T23:38:15.748Z,12.85
2022-12-20T23:41:05.671Z,12.18
2022-12-20T23:43:51.097Z,12.38
2022-12-20T23:46:36.362Z,12.10
2022-12-20T23:49:22.258Z,13.43
2022-12-20T23:52:07.680Z,11.20
2022-12-20T23:54:53.125Z,14.02
2022-12-20T23:57:38.591Z,13.05
